createdAt,value
2018-12-06T00:00:12.189Z,5.60
2018-12-06T00:03:19.688Z,5.50
2018-12-06T00:06:27.185Z,5.50
2018-12-06T00:09:34.677Z,5.60
2018-12-06T00:12:42.156Z,5.50
2018-12-06T00:16:00.072Z,5.50
2018-12-06T00:19:10.444Z,5.50
2018-12-06T00:22:17.960Z,5.40
2018-12-06T00:25:25.927Z,5.50
2018-12-06T00:28:43.449Z,5.50
2018-12-06T00:32:00.925Z,5.40
2018-12-06T00:35:18.342Z,5.40
2018-12-06T00:38:35.741Z,5.30
2018-12-06T00:41:53.205Z,5.20
2018-12-06T00:45:02.950Z,5.20
2018-12-06T00:48:10.717Z,5.20
2018-12-06T00:51:28.392Z,5.30
2018-12-06T00:54:45.646Z,5.30
2018-12-06T00:58:03.552Z,5.30
2018-12-06T01:01:11.877Z,5.30
2018-12-06T01:04:29.389Z,5.40
2018-12-06T01:07:46.800Z,5.40
2018-12-06T01:11:04.269Z,5.30
2018-12-06T01:14:23.775Z,5.50
2018-12-06T01:17:31.473Z,5.50
2018-12-06T01:20:38.928Z,5.40
2018-12-06T01:23:46.432Z,5.50
2018-12-06T01:27:06.941Z,5.50
2018-12-06T01:30:24.533Z,5.50
2018-12-06T01:33:41.989Z,5.40
2018-12-06T01:36:59.424Z,5.40
2018-12-06T01:40:16.896Z,5.50
2018-12-06T01:43:34.399Z,5.50
2018-12-06T01:46:42.097Z,5.50
2018-12-06T01:49:49.555Z,5.40
2018-12-06T01:52:57.046Z,5.50
2018-12-06T01:56:04.509Z,5.50
2018-12-06T01:59:12.005Z,5.50
2018-12-06T02:02:29.427Z,5.60
2018-12-06T02:05:46.799Z,5.60
2018-12-06T02:09:06.532Z,5.60
2018-12-06T02:12:14.664Z,5.60
2018-12-06T02:15:32.151Z,5.60
2018-12-06T02:18:49.623Z,5.50
2018-12-06T02:22:07.717Z,5.60
2018-12-06T02:28:30.924Z,5.60
2018-12-06T02:31:48.847Z,5.60
2018-12-06T02:35:07.188Z,5.60
2018-12-06T02:38:14.725Z,5.60
2018-12-06T02:41:22.410Z,5.60
2018-12-06T02:44:30.354Z,5.70
2018-12-06T02:47:38.333Z,5.60
2018-12-06T02:50:55.795Z,5.60
2018-12-06T02:54:13.186Z,5.60
2018-12-06T02:57:30.569Z,5.60
2018-12-06T03:00:48.069Z,5.60
2018-12-06T03:03:55.797Z,5.60
2018-12-06T03:07:03.264Z,5.70
2018-12-06T03:10:10.766Z,5.70
2018-12-06T03:13:18.221Z,5.70
2018-12-06T03:16:25.709Z,5.60
2018-12-06T03:19:33.720Z,5.60
2018-12-06T03:22:41.197Z,5.70
2018-12-06T03:25:48.778Z,5.70
2018-12-06T03:29:06.294Z,5.60
2018-12-06T03:32:23.693Z,5.60
2018-12-06T03:35:41.093Z,5.60
2018-12-06T03:38:58.532Z,5.70
2018-12-06T03:42:16.995Z,5.70
2018-12-06T03:45:34.917Z,5.70
2018-12-06T03:48:52.381Z,5.90
2018-12-06T03:52:09.782Z,5.80
2018-12-06T03:55:27.217Z,5.60
2018-12-06T03:58:44.657Z,5.70
2018-12-06T04:02:02.076Z,5.70
2018-12-06T04:05:19.557Z,5.80
2018-12-06T04:08:36.933Z,5.70
2018-12-06T04:11:54.533Z,5.80
2018-12-06T04:15:11.847Z,5.90
2018-12-06T04:18:29.240Z,5.90
2018-12-06T04:21:37.040Z,5.90
2018-12-06T04:24:44.546Z,5.80
2018-12-06T04:27:52.033Z,5.80
2018-12-06T04:34:15.238Z,5.80
2018-12-06T04:37:32.707Z,5.80
2018-12-06T04:40:40.481Z,5.80
2018-12-06T04:43:48.080Z,5.80
2018-12-06T04:46:55.680Z,5.90
2018-12-06T04:50:13.279Z,5.90
2018-12-06T04:53:30.716Z,5.80
2018-12-06T04:56:48.170Z,5.90
2018-12-06T05:00:06.409Z,5.90
2018-12-06T05:03:13.905Z,6.00
2018-12-06T05:06:22.044Z,5.90
2018-12-06T05:09:29.604Z,5.90
2018-12-06T05:12:37.224Z,5.80
2018-12-06T05:15:44.710Z,5.90
2018-12-06T05:19:02.088Z,5.90
2018-12-06T05:22:19.545Z,5.90
2018-12-06T05:25:36.969Z,5.90
2018-12-06T05:28:54.395Z,6.00
2018-12-06T05:32:11.854Z,6.00
2018-12-06T05:35:29.235Z,5.80
2018-12-06T05:38:46.745Z,5.90
2018-12-06T05:42:04.161Z,5.90
2018-12-06T05:45:21.575Z,6.00
2018-12-06T05:48:38.950Z,6.10
2018-12-06T05:51:56.525Z,6.10
2018-12-06T05:55:13.836Z,6.10
2018-12-06T05:58:31.247Z,6.10
2018-12-06T06:01:48.763Z,6.20
2018-12-06T06:05:08.116Z,6.20
2018-12-06T06:08:16.340Z,6.20
2018-12-06T06:11:23.857Z,6.20
2018-12-06T06:14:41.190Z,6.30
2018-12-06T06:17:58.701Z,6.30
2018-12-06T06:21:16.157Z,6.30
2018-12-06T06:24:33.584Z,6.30
2018-12-06T06:27:51.049Z,6.40
2018-12-06T06:31:08.460Z,6.40
2018-12-06T06:34:25.936Z,6.40
2018-12-06T06:37:43.269Z,6.30
2018-12-06T06:41:00.737Z,6.30
2018-12-06T06:44:18.179Z,6.40
2018-12-06T06:47:35.637Z,6.50
2018-12-06T06:50:53.697Z,6.50
2018-12-06T06:54:01.217Z,6.50
2018-12-06T06:57:08.685Z,6.60
2018-12-06T07:00:16.215Z,6.60
2018-12-06T07:03:23.769Z,6.70
2018-12-06T07:06:41.381Z,6.70
2018-12-06T07:09:59.361Z,6.60
2018-12-06T07:13:07.351Z,6.70
2018-12-06T07:16:14.973Z,6.80
2018-12-06T07:19:22.453Z,6.90
2018-12-06T07:25:46.895Z,6.90
2018-12-06T07:29:04.559Z,6.90
2018-12-06T07:32:12.213Z,6.80
2018-12-06T07:35:19.725Z,6.70
2018-12-06T07:38:27.191Z,6.70
2018-12-06T07:44:50.400Z,6.80
2018-12-06T07:51:14.021Z,6.80
2018-12-06T07:54:31.321Z,6.80
2018-12-06T07:57:48.853Z,6.90
2018-12-06T08:01:06.282Z,7.00
2018-12-06T08:04:23.637Z,7.10
2018-12-06T08:07:43.143Z,7.00
2018-12-06T08:11:01.042Z,7.00
2018-12-06T08:14:08.519Z,7.00
2018-12-06T08:20:31.697Z,7.10
2018-12-06T08:23:49.101Z,7.10
2018-12-06T08:27:06.680Z,7.10
2018-12-06T08:30:24.022Z,7.20
2018-12-06T08:33:41.470Z,7.20
2018-12-06T08:36:58.932Z,7.20
2018-12-06T08:40:16.429Z,7.20
2018-12-06T08:43:35.005Z,7.20
2018-12-06T08:49:58.283Z,7.30
2018-12-06T08:53:15.706Z,7.40
2018-12-06T08:56:33.130Z,7.40
2018-12-06T08:59:50.606Z,7.50
2018-12-06T09:03:08.476Z,7.60
2018-12-06T09:06:25.925Z,7.60
2018-12-06T09:09:33.749Z,7.70
2018-12-06T09:15:57.004Z,7.80
2018-12-06T09:19:14.813Z,7.80
2018-12-06T09:22:24.411Z,7.80
2018-12-06T09:25:42.281Z,7.80
2018-12-06T09:28:59.709Z,7.90
2018-12-06T09:32:17.344Z,7.90
2018-12-06T09:35:24.849Z,7.90
2018-12-06T09:41:48.826Z,7.90
2018-12-06T09:45:08.520Z,7.90
2018-12-06T09:51:32.397Z,8.10
2018-12-06T09:54:39.893Z,8.00
2018-12-06T10:01:03.589Z,7.90
2018-12-06T10:04:21.061Z,7.90
2018-12-06T10:07:38.488Z,8.10
2018-12-06T10:10:56.529Z,8.10
2018-12-06T10:14:13.920Z,8.10
2018-12-06T10:17:31.772Z,8.20
2018-12-06T10:20:39.376Z,8.20
2018-12-06T10:27:02.650Z,8.20
2018-12-06T10:30:20.649Z,8.10
2018-12-06T10:33:28.156Z,8.20
2018-12-06T10:36:35.868Z,8.20
2018-12-06T10:39:43.373Z,8.40
2018-12-06T10:43:00.741Z,8.40
2018-12-06T10:46:21.476Z,8.40
2018-12-06T10:49:28.971Z,8.40
2018-12-06T10:55:52.207Z,8.60
2018-12-06T10:59:09.732Z,8.80
2018-12-06T11:02:30.800Z,9.00
2018-12-06T11:05:38.741Z,9.10
2018-12-06T11:12:02.269Z,9.30
2018-12-06T11:15:10.805Z,9.40
2018-12-06T11:18:30.377Z,9.40
2018-12-06T11:21:48.481Z,9.40
2018-12-06T11:24:56.285Z,9.50
2018-12-06T11:31:19.733Z,9.60
2018-12-06T11:34:37.178Z,9.70
2018-12-06T11:37:54.737Z,9.70
2018-12-06T11:41:02.561Z,9.70
2018-12-06T11:47:26.231Z,9.80
2018-12-06T11:50:33.928Z,9.80
2018-12-06T11:53:41.904Z,9.90
2018-12-06T11:56:59.685Z,9.90
2018-12-06T12:00:08.740Z,9.90
2018-12-06T12:03:16.448Z,10.00
2018-12-06T12:06:24.072Z,10.00
2018-12-06T12:09:42.277Z,9.90
2018-12-06T12:12:50.247Z,9.90
2018-12-06T12:16:08.024Z,9.90
2018-12-06T12:22:33.082Z,10.00
2018-12-06T12:25:50.699Z,9.90
2018-12-06T12:29:08.279Z,9.90
2018-12-06T12:32:16.083Z,10.00
2018-12-06T12:35:23.896Z,10.00
2018-12-06T12:38:41.845Z,9.90
2018-12-06T12:41:49.644Z,10.00
2018-12-06T12:44:57.221Z,10.00
2018-12-06T12:51:21.020Z,10.00
2018-12-06T12:57:44.622Z,10.10
2018-12-06T13:00:52.587Z,10.10
2018-12-06T13:07:16.542Z,10.10
2018-12-06T13:10:24.199Z,10.20
2018-12-06T13:13:32.004Z,10.20
2018-12-06T13:16:40.073Z,10.20
2018-12-06T13:19:48.149Z,10.20
2018-12-06T13:26:13.925Z,10.20
2018-12-06T13:32:39.087Z,10.20
2018-12-06T13:35:46.834Z,10.30
2018-12-06T13:42:10.237Z,10.40
2018-12-06T13:45:18.539Z,10.40
2018-12-06T13:51:42.223Z,10.50
2018-12-06T13:54:49.834Z,10.50
2018-12-06T14:01:13.561Z,10.60
2018-12-06T14:07:37.728Z,10.60
2018-12-06T14:10:45.350Z,10.70
2018-12-06T14:17:08.944Z,10.70
2018-12-06T14:20:16.706Z,10.70
2018-12-06T14:23:24.385Z,10.80
2018-12-06T14:26:32.014Z,10.80
2018-12-06T14:32:55.915Z,10.80
2018-12-06T14:36:13.818Z,10.80
2018-12-06T14:42:37.665Z,10.90
2018-12-06T14:45:46.018Z,10.90
2018-12-06T14:49:03.689Z,10.90
2018-12-06T14:52:11.405Z,10.90
2018-12-06T14:55:18.974Z,11.00
2018-12-06T15:01:42.505Z,10.90
2018-12-06T15:08:06.370Z,11.00
2018-12-06T15:11:14.205Z,11.00
2018-12-06T15:17:37.730Z,11.00
2018-12-06T15:20:45.545Z,11.00
2018-12-06T15:27:08.898Z,11.00
2018-12-06T15:30:26.538Z,11.10
2018-12-06T15:33:34.204Z,11.10
2018-12-06T15:36:41.719Z,11.10
2018-12-06T15:43:05.339Z,11.10
2018-12-06T15:46:12.832Z,11.20
2018-12-06T15:52:36.257Z,11.20
2018-12-06T15:55:53.729Z,11.20
2018-12-06T15:59:11.184Z,11.30
2018-12-06T16:02:28.763Z,11.30
2018-12-06T16:05:36.276Z,11.30
2018-12-06T16:11:59.540Z,11.30
2018-12-06T16:15:17.925Z,11.30
2018-12-06T16:21:41.761Z,11.40
2018-12-06T16:28:05.625Z,11.40
2018-12-06T16:31:13.314Z,11.40
2018-12-06T16:37:36.541Z,11.50
2018-12-06T16:40:54.114Z,11.50
2018-12-06T16:47:17.429Z,11.60
2018-12-06T16:50:34.989Z,11.60
2018-12-06T16:53:42.593Z,11.60
2018-12-06T16:56:50.329Z,11.60
2018-12-06T17:03:13.817Z,11.70
2018-12-06T17:06:34.938Z,11.70
2018-12-06T17:13:00.112Z,11.70
2018-12-06T17:16:08.118Z,11.60
2018-12-06T17:22:32.145Z,11.70
2018-12-06T17:25:39.810Z,11.70
2018-12-06T17:32:03.131Z,11.80
2018-12-06T17:35:20.584Z,11.80
2018-12-06T17:38:38.059Z,11.80
2018-12-06T17:41:55.598Z,11.80
2018-12-06T17:48:18.976Z,11.80
2018-12-06T17:51:36.469Z,11.80
2018-12-06T17:57:59.809Z,11.80
2018-12-06T18:01:17.476Z,11.90
2018-12-06T18:07:41.126Z,11.90
2018-12-06T18:10:49.059Z,11.80
2018-12-06T18:17:12.466Z,11.80
2018-12-06T18:20:20.120Z,11.80
2018-12-06T18:23:27.639Z,11.80
2018-12-06T18:26:35.189Z,11.80
2018-12-06T18:32:58.550Z,11.80
2018-12-06T18:36:06.337Z,11.90
2018-12-06T18:42:30.104Z,11.90
2018-12-06T18:48:53.321Z,11.90
2018-12-06T18:52:11.568Z,11.90
2018-12-06T18:58:36.893Z,11.90
2018-12-06T19:01:45.058Z,11.80
2018-12-06T19:05:02.649Z,11.80
2018-12-06T19:08:20.606Z,11.90
2018-12-06T19:11:38.964Z,11.80
2018-12-06T19:18:04.281Z,11.90
2018-12-06T19:21:12.103Z,11.90
2018-12-06T19:27:35.441Z,11.90
2018-12-06T19:30:52.806Z,11.90
2018-12-06T19:34:10.777Z,11.90
2018-12-06T19:37:28.259Z,11.90
2018-12-06T19:40:46.165Z,11.90
2018-12-06T19:44:03.658Z,11.80
2018-12-06T19:47:21.104Z,11.90
2018-12-06T19:50:38.488Z,11.90
2018-12-06T19:53:55.954Z,11.90
2018-12-06T19:57:13.464Z,11.90
2018-12-06T20:00:30.930Z,11.90
2018-12-06T20:03:49.080Z,11.90
2018-12-06T20:07:06.760Z,11.90
2018-12-06T20:10:24.203Z,11.90
2018-12-06T20:13:31.941Z,11.90
2018-12-06T20:16:39.429Z,12.00
2018-12-06T20:23:03.571Z,11.90
2018-12-06T20:26:21.064Z,11.90
2018-12-06T20:32:44.724Z,11.90
2018-12-06T20:39:08.706Z,11.80
2018-12-06T20:42:16.323Z,11.80
2018-12-06T20:48:40.624Z,11.80
2018-12-06T20:51:58.284Z,11.70
2018-12-06T20:58:26.398Z,11.80
2018-12-06T21:01:43.939Z,11.80
2018-12-06T21:08:07.287Z,11.80
2018-12-06T21:11:24.783Z,11.80
2018-12-06T21:14:42.300Z,11.80
2018-12-06T21:18:00.382Z,11.80
2018-12-06T21:21:07.920Z,11.80
2018-12-06T21:27:31.232Z,11.80
2018-12-06T21:30:49.637Z,11.80
2018-12-06T21:33:57.292Z,11.90
2018-12-06T21:37:14.917Z,11.80
2018-12-06T21:40:32.865Z,11.80
2018-12-06T21:43:40.404Z,11.80
2018-12-06T21:46:47.943Z,11.80
2018-12-06T21:53:12.179Z,11.80
2018-12-06T21:56:31.586Z,11.80
2018-12-06T21:59:49.126Z,11.90
2018-12-06T22:02:56.654Z,11.90
2018-12-06T22:09:20.853Z,11.80
2018-12-06T22:12:38.417Z,11.80
2018-12-06T22:15:55.782Z,11.80
2018-12-06T22:19:13.799Z,11.80
2018-12-06T22:22:21.761Z,11.80
2018-12-06T22:28:45.169Z,11.80
2018-12-06T22:32:02.717Z,11.90
2018-12-06T22:38:26.102Z,11.90
2018-12-06T22:41:43.576Z,11.90
2018-12-06T22:46:15.371Z,11.90
2018-12-06T22:52:39.371Z,11.90
2018-12-06T22:59:03.746Z,11.90
2018-12-06T23:02:11.604Z,11.90
2018-12-06T23:08:34.848Z,11.90
2018-12-06T23:11:52.436Z,11.90
2018-12-06T23:18:17.074Z,11.90
2018-12-06T23:21:24.713Z,12.00
2018-12-06T23:24:42.176Z,12.00
2018-12-06T23:27:59.719Z,12.00
2018-12-06T23:31:08.304Z,11.90
2018-12-06T23:34:26.420Z,11.90
2018-12-06T23:37:34.064Z,11.90
2018-12-06T23:43:57.364Z,11.90
2018-12-06T23:47:14.809Z,11.90
2018-12-06T23:50:32.718Z,11.90
2018-12-06T23:53:40.368Z,12.00
2018-12-06T23:56:48.125Z,12.00
